Time;durP1;ratioP1;P1;durP2;ratioP2;P2;SDS_P1;SDS_P2;PMS_P1;PMS_P2;Temp;Humidity;BMP_temperature;BMP_pressure;BME280_temperature;BME280_humidity;BME280_pressure;Samples;Min_cycle;Max_cycle;Signal;HPM_P1;HPM_P2
2021/10/14 00:01:22;;;;;;;4.38;2.33;;;;;;;;;;5087085;28;20608;-48
2021/10/14 00:03:48;;;;;;;4.20;2.42;;;;;;;;;;5070622;28;20537;-49
2021/10/14 00:06:14;;;;;;;4.72;2.17;;;;;;;;;;5065954;28;20738;-48
2021/10/14 00:08:40;;;;;;;2.78;1.75;;;;;;;;;;5068051;28;20032;-48
2021/10/14 00:11:07;;;;;;;2.60;1.60;;;;;;;;;;5067133;28;20036;-49
2021/10/14 00:13:33;;;;;;;2.35;1.60;;;;;;;;;;5067288;28;20036;-50
2021/10/14 00:15:59;;;;;;;1.92;1.27;;;;;;;;;;5067224;28;20027;-48
2021/10/14 00:18:25;;;;;;;3.15;1.75;;;;;;;;;;5067657;28;20078;-51
2021/10/14 00:20:51;;;;;;;2.55;1.75;;;;;;;;;;5067155;28;20024;-49
2021/10/14 00:23:17;;;;;;;2.13;1.52;;;;;;;;;;5078390;28;20028;-48
2021/10/14 00:25:43;;;;;;;1.52;1.10;;;;;;;;;;5087539;28;20073;-50
2021/10/14 00:28:10;;;;;;;2.33;1.73;;;;;;;;;;5087676;28;20668;-48
2021/10/14 00:30:36;;;;;;;3.42;1.60;;;;;;;;;;5087472;28;20035;-49
2021/10/14 00:33:02;;;;;;;2.75;1.90;;;;;;;;;;5085989;28;20101;-49
2021/10/14 00:35:28;;;;;;;2.67;1.52;;;;;;;;;;5087568;28;20082;-49
2021/10/14 00:37:54;;;;;;;2.90;1.45;;;;;;;;;;5087091;28;20027;-49
2021/10/14 00:40:20;;;;;;;3.95;1.65;;;;;;;;;;5087087;28;20108;-49
2021/10/14 00:42:46;;;;;;;2.28;1.30;;;;;;;;;;5080901;28;20052;-49
2021/10/14 00:45:13;;;;;;;3.38;1.60;;;;;;;;;;5066693;28;20074;-51
2021/10/14 00:47:40;;;;;;;1.58;1.30;;;;;;;;;;5067621;28;20480;-48
2021/10/14 00:50:06;;;;;;;2.85;1.30;;;;;;;;;;5082255;28;20062;-49
2021/10/14 00:52:37;;;;;;;2.30;1.40;;;;;;;;;;5083936;28;20032;-49
2021/10/14 00:55:03;;;;;;;2.45;1.50;;;;;;;;;;5074910;28;20032;-49
2021/10/14 00:57:29;;;;;;;2.65;1.10;;;;;;;;;;5066946;28;20047;-48
2021/10/14 00:59:55;;;;;;;2.00;1.33;;;;;;;;;;5066101;28;20017;-48
2021/10/14 01:02:22;;;;;;;1.67;1.23;;;;;;;;;;5065375;28;20032;-50
2021/10/14 01:04:48;;;;;;;2.05;1.50;;;;;;;;;;5066487;28;20024;-49
2021/10/14 01:07:14;;;;;;;1.65;1.38;;;;;;;;;;5066005;28;20036;-48
2021/10/14 01:09:40;;;;;;;2.55;1.67;;;;;;;;;;5066939;28;20146;-50
2021/10/14 01:12:07;;;;;;;2.15;1.58;;;;;;;;;;5066079;28;20030;-49
2021/10/14 01:14:34;;;;;;;2.45;1.63;;;;;;;;;;5066460;28;20035;-49
2021/10/14 01:17:00;;;;;;;2.42;1.50;;;;;;;;;;5066308;28;20029;-50
2021/10/14 01:19:27;;;;;;;2.47;1.60;;;;;;;;;;5067342;28;20119;-49
2021/10/14 01:21:53;;;;;;;1.50;1.40;;;;;;;;;;5066597;28;20483;-49
2021/10/14 01:24:19;;;;;;;3.05;1.65;;;;;;;;;;5065609;28;20597;-49
2021/10/14 01:26:46;;;;;;;2.78;1.88;;;;;;;;;;5066390;28;20025;-49
2021/10/14 01:29:12;;;;;;;2.78;1.60;;;;;;;;;;5066122;28;20020;-50
2021/10/14 01:31:38;;;;;;;2.10;1.52;;;;;;;;;;5072999;28;20077;-49
2021/10/14 01:34:04;;;;;;;1.90;1.40;;;;;;;;;;5086191;28;20028;-49
2021/10/14 01:36:30;;;;;;;2.95;1.80;;;;;;;;;;5086384;28;20046;-50
2021/10/14 01:38:57;;;;;;;2.40;1.60;;;;;;;;;;5087161;28;20028;-49
2021/10/14 01:41:23;;;;;;;2.25;1.73;;;;;;;;;;5086905;28;20027;-50
2021/10/14 01:43:49;;;;;;;2.50;1.42;;;;;;;;;;5067157;28;20060;-49
2021/10/14 01:46:15;;;;;;;1.70;1.42;;;;;;;;;;5066099;28;20032;-49
2021/10/14 01:48:42;;;;;;;2.03;1.25;;;;;;;;;;5066295;28;20024;-48
2021/10/14 01:51:10;;;;;;;1.95;1.30;;;;;;;;;;5065789;28;20499;-49
2021/10/14 01:53:36;;;;;;;1.90;1.25;;;;;;;;;;5080682;28;20058;-51
2021/10/14 01:56:02;;;;;;;1.55;1.30;;;;;;;;;;5086010;28;20028;-50
2021/10/14 01:58:28;;;;;;;2.35;1.13;;;;;;;;;;5086510;28;20031;-50
2021/10/14 02:00:54;;;;;;;2.63;1.50;;;;;;;;;;5088372;28;20476;-48
2021/10/14 02:03:20;;;;;;;2.35;1.63;;;;;;;;;;5075793;28;20157;-49
2021/10/14 02:05:46;;;;;;;1.92;1.40;;;;;;;;;;5068984;28;20107;-50
2021/10/14 02:08:13;;;;;;;2.00;1.70;;;;;;;;;;5069488;28;20028;-50
2021/10/14 02:10:40;;;;;;;2.67;1.48;;;;;;;;;;5069729;28;20044;-49
2021/10/14 02:13:06;;;;;;;1.95;1.58;;;;;;;;;;5069262;28;20025;-49
2021/10/14 02:15:33;;;;;;;2.92;1.70;;;;;;;;;;5069869;28;20064;-48
2021/10/14 02:17:59;;;;;;;3.30;1.98;;;;;;;;;;5069671;28;20028;-49
2021/10/14 02:20:26;;;;;;;1.92;1.40;;;;;;;;;;5070304;28;20031;-49
2021/10/14 02:22:52;;;;;;;2.17;1.65;;;;;;;;;;5069855;28;20036;-48
2021/10/14 02:25:18;;;;;;;1.55;1.30;;;;;;;;;;5069428;28;20103;-50
2021/10/14 02:27:45;;;;;;;2.13;1.70;;;;;;;;;;5069877;28;20020;-50
2021/10/14 02:30:12;;;;;;;2.03;1.55;;;;;;;;;;5069340;28;20032;-49
2021/10/14 02:32:38;;;;;;;2.20;1.60;;;;;;;;;;5069266;28;20033;-49
2021/10/14 02:35:04;;;;;;;2.13;1.48;;;;;;;;;;5069135;28;20051;-49
2021/10/14 02:37:31;;;;;;;2.60;1.58;;;;;;;;;;5069231;28;20093;-49
2021/10/14 02:39:57;;;;;;;1.67;1.40;;;;;;;;;;5070009;28;20099;-52
2021/10/14 02:42:23;;;;;;;2.17;1.40;;;;;;;;;;5069059;28;20021;-49
2021/10/14 02:44:49;;;;;;;2.42;1.63;;;;;;;;;;5069573;28;20133;-50
2021/10/14 02:47:15;;;;;;;2.17;1.60;;;;;;;;;;5070362;28;21169;-48
2021/10/14 02:49:41;;;;;;;2.25;1.42;;;;;;;;;;5086833;28;20028;-50
2021/10/14 02:52:07;;;;;;;2.42;1.70;;;;;;;;;;5067877;28;20379;-48
2021/10/14 02:54:33;;;;;;;2.22;1.70;;;;;;;;;;5069217;28;20078;-48
2021/10/14 02:56:59;;;;;;;2.85;1.60;;;;;;;;;;5069003;28;20112;-48
2021/10/14 02:59:26;;;;;;;2.40;1.90;;;;;;;;;;5069366;28;20498;-51
2021/10/14 03:01:52;;;;;;;3.05;2.00;;;;;;;;;;5068109;28;20336;-49
2021/10/14 03:04:18;;;;;;;2.55;1.70;;;;;;;;;;5082894;28;20360;-53
2021/10/14 03:06:44;;;;;;;3.13;2.00;;;;;;;;;;5088816;28;20020;-52
2021/10/14 03:09:10;;;;;;;3.08;1.92;;;;;;;;;;5088663;28;20475;-53
2021/10/14 03:11:36;;;;;;;2.75;1.80;;;;;;;;;;5088881;28;20107;-50
2021/10/14 03:14:03;;;;;;;2.53;1.80;;;;;;;;;;5070179;28;20373;-50
2021/10/14 03:16:29;;;;;;;2.70;1.90;;;;;;;;;;5067947;28;20028;-52
2021/10/14 03:18:55;;;;;;;2.80;2.05;;;;;;;;;;5069002;28;20024;-49
2021/10/14 03:21:21;;;;;;;2.58;1.80;;;;;;;;;;5067059;28;20685;-49
2021/10/14 03:23:48;;;;;;;2.33;1.90;;;;;;;;;;5068412;28;20029;-49
2021/10/14 03:26:14;;;;;;;2.70;1.60;;;;;;;;;;5068276;28;20029;-49
2021/10/14 03:28:40;;;;;;;3.40;1.90;;;;;;;;;;5067663;28;20032;-50
2021/10/14 03:31:06;;;;;;;3.08;1.77;;;;;;;;;;5068191;28;20055;-51
2021/10/14 03:33:32;;;;;;;3.88;2.10;;;;;;;;;;5067383;28;20036;-49
2021/10/14 03:35:58;;;;;;;2.50;2.00;;;;;;;;;;5068264;28;20035;-49
2021/10/14 03:38:24;;;;;;;3.10;2.10;;;;;;;;;;5068020;28;20135;-49
2021/10/14 03:40:50;;;;;;;3.10;2.22;;;;;;;;;;5068140;28;20083;-50
2021/10/14 03:43:16;;;;;;;3.38;2.20;;;;;;;;;;5067430;28;20400;-49
2021/10/14 03:45:43;;;;;;;2.88;2.05;;;;;;;;;;5068182;28;20028;-49
2021/10/14 03:48:09;;;;;;;2.65;2.20;;;;;;;;;;5080316;28;20036;-52
2021/10/14 03:50:36;;;;;;;2.47;1.70;;;;;;;;;;5067559;28;20028;-49
2021/10/14 03:53:02;;;;;;;2.78;2.10;;;;;;;;;;5067878;28;20032;-48
2021/10/14 03:55:28;;;;;;;3.25;2.10;;;;;;;;;;5067858;28;20024;-49
2021/10/14 03:57:55;;;;;;;4.85;2.90;;;;;;;;;;5068179;28;20024;-49
2021/10/14 04:00:22;;;;;;;4.72;2.63;;;;;;;;;;5066188;28;20048;-49
2021/10/14 04:02:48;;;;;;;3.45;2.42;;;;;;;;;;5067421;28;20419;-49
2021/10/14 04:05:14;;;;;;;2.92;2.33;;;;;;;;;;5076774;28;20024;-49
2021/10/14 04:07:40;;;;;;;3.28;2.20;;;;;;;;;;5088053;28;20065;-49
2021/10/14 04:10:07;;;;;;;2.50;1.95;;;;;;;;;;5087146;28;20411;-49
2021/10/14 04:12:33;;;;;;;3.25;2.28;;;;;;;;;;5087586;28;20070;-49
2021/10/14 04:14:59;;;;;;;3.58;2.50;;;;;;;;;;5086536;28;20103;-49
2021/10/14 04:17:25;;;;;;;2.95;1.90;;;;;;;;;;5088178;28;20395;-48
2021/10/14 04:19:51;;;;;;;2.80;2.13;;;;;;;;;;5086627;28;20080;-49
2021/10/14 04:22:19;;;;;;;3.42;2.40;;;;;;;;;;5087339;28;20044;-49
2021/10/14 04:24:47;;;;;;;5.18;2.33;;;;;;;;;;5080803;28;20020;-52
2021/10/14 04:27:13;;;;;;;2.88;2.03;;;;;;;;;;5067090;28;20028;-52
2021/10/14 04:29:39;;;;;;;3.28;1.92;;;;;;;;;;5067250;28;20028;-50
2021/10/14 04:32:09;;;;;;;3.75;2.17;;;;;;;;;;5066941;28;20075;-51
2021/10/14 04:34:35;;;;;;;2.65;2.15;;;;;;;;;;5066403;28;20016;-50
2021/10/14 04:37:08;;;;;;;3.97;2.20;;;;;;;;;;5067068;28;20029;-49
2021/10/14 04:39:35;;;;;;;3.95;2.08;;;;;;;;;;5066854;28;20081;-48
2021/10/14 04:42:01;;;;;;;2.92;2.17;;;;;;;;;;5066357;28;20101;-49
2021/10/14 04:44:27;;;;;;;3.03;2.28;;;;;;;;;;5067167;28;20028;-48
2021/10/14 04:46:53;;;;;;;2.92;2.20;;;;;;;;;;5074164;28;20111;-49
2021/10/14 04:49:19;;;;;;;4.70;2.33;;;;;;;;;;5087141;28;20085;-50
2021/10/14 04:51:45;;;;;;;3.67;2.30;;;;;;;;;;5084467;28;20566;-49
2021/10/14 04:54:11;;;;;;;2.53;1.75;;;;;;;;;;5068611;28;20017;-48
2021/10/14 04:56:37;;;;;;;4.38;2.42;;;;;;;;;;5068397;28;20388;-49
2021/10/14 04:59:03;;;;;;;3.80;2.40;;;;;;;;;;5072377;28;20019;-49
2021/10/14 05:01:29;;;;;;;3.33;2.38;;;;;;;;;;5087965;28;20510;-49
2021/10/14 05:03:55;;;;;;;3.88;2.20;;;;;;;;;;5087691;28;20028;-49
2021/10/14 05:06:22;;;;;;;2.88;2.03;;;;;;;;;;5087427;28;20495;-53
2021/10/14 05:08:48;;;;;;;3.22;2.17;;;;;;;;;;5085401;28;20028;-51
2021/10/14 05:11:14;;;;;;;2.78;2.10;;;;;;;;;;5067675;28;20127;-52
2021/10/14 05:13:40;;;;;;;3.47;2.33;;;;;;;;;;5068285;28;20033;-49
2021/10/14 05:16:07;;;;;;;3.53;1.90;;;;;;;;;;5068163;28;20107;-49
2021/10/14 05:18:33;;;;;;;3.30;2.13;;;;;;;;;;5067988;28;20020;-49
2021/10/14 05:20:59;;;;;;;4.45;2.25;;;;;;;;;;5067480;28;20029;-49
2021/10/14 05:23:26;;;;;;;3.50;2.40;;;;;;;;;;5067785;28;20024;-49
2021/10/14 05:25:52;;;;;;;6.93;3.13;;;;;;;;;;5083733;28;20486;-49
2021/10/14 05:28:18;;;;;;;4.68;2.90;;;;;;;;;;5079631;28;20028;-49
2021/10/14 05:30:46;;;;;;;4.70;2.80;;;;;;;;;;5076960;28;20032;-49
2021/10/14 05:33:12;;;;;;;3.63;2.65;;;;;;;;;;5087795;28;20526;-49
2021/10/14 05:35:38;;;;;;;3.17;2.72;;;;;;;;;;5080661;28;20468;-50
2021/10/14 05:38:04;;;;;;;3.75;2.70;;;;;;;;;;5083248;28;20050;-49
2021/10/14 05:40:30;;;;;;;4.22;2.72;;;;;;;;;;5087608;28;20024;-49
2021/10/14 05:42:56;;;;;;;4.57;2.65;;;;;;;;;;5087688;28;20081;-48
2021/10/14 05:45:22;;;;;;;4.07;2.55;;;;;;;;;;5087941;28;20039;-50
2021/10/14 05:47:48;;;;;;;4.20;2.80;;;;;;;;;;5071409;28;20059;-52
2021/10/14 05:50:15;;;;;;;4.28;2.95;;;;;;;;;;5067309;28;20499;-49
2021/10/14 05:52:41;;;;;;;4.15;2.90;;;;;;;;;;5067700;28;20069;-49
2021/10/14 05:55:07;;;;;;;4.68;3.22;;;;;;;;;;5068045;28;20576;-49
2021/10/14 05:57:33;;;;;;;8.52;3.53;;;;;;;;;;5074468;28;20514;-48
2021/10/14 05:59:59;;;;;;;4.25;3.03;;;;;;;;;;5068173;28;20048;-49
2021/10/14 06:02:25;;;;;;;7.00;3.38;;;;;;;;;;5069091;28;20641;-48
2021/10/14 06:04:51;;;;;;;4.55;3.10;;;;;;;;;;5071662;28;20620;-49
2021/10/14 06:07:18;;;;;;;3.35;2.90;;;;;;;;;;5072819;28;20036;-49
2021/10/14 06:09:44;;;;;;;6.10;3.15;;;;;;;;;;5081709;28;20047;-51
2021/10/14 06:12:12;;;;;;;4.40;3.30;;;;;;;;;;5078584;28;20040;-49
2021/10/14 06:14:39;;;;;;;5.10;3.20;;;;;;;;;;5075699;28;20520;-49
2021/10/14 06:17:05;;;;;;;4.22;3.13;;;;;;;;;;5073498;28;20021;-49
2021/10/14 06:19:31;;;;;;;5.30;3.35;;;;;;;;;;5067748;28;20112;-49
2021/10/14 06:21:57;;;;;;;4.68;3.28;;;;;;;;;;5069808;28;20143;-48
2021/10/14 06:24:23;;;;;;;4.30;2.80;;;;;;;;;;5076504;28;20453;-48
2021/10/14 06:26:49;;;;;;;4.13;2.95;;;;;;;;;;5082338;28;20042;-51
2021/10/14 06:29:15;;;;;;;4.15;2.85;;;;;;;;;;5079301;28;20531;-49
2021/10/14 06:31:41;;;;;;;4.43;2.90;;;;;;;;;;5087885;28;20020;-50
2021/10/14 06:34:07;;;;;;;4.30;2.70;;;;;;;;;;5072528;28;20407;-49
2021/10/14 06:36:33;;;;;;;3.95;3.03;;;;;;;;;;5070851;28;20085;-48
2021/10/14 06:38:59;;;;;;;3.45;2.58;;;;;;;;;;5067093;28;20032;-50
2021/10/14 06:41:26;;;;;;;4.50;3.42;;;;;;;;;;5076422;28;20522;-51
2021/10/14 06:43:52;;;;;;;3.35;2.45;;;;;;;;;;5087080;28;20561;-51
2021/10/14 06:46:18;;;;;;;5.18;2.75;;;;;;;;;;5084820;28;20035;-51
2021/10/14 06:48:44;;;;;;;6.07;3.03;;;;;;;;;;5084467;28;20123;-53
2021/10/14 06:51:10;;;;;;;4.00;2.83;;;;;;;;;;5081583;28;20068;-50
2021/10/14 06:53:37;;;;;;;3.08;2.40;;;;;;;;;;5068934;28;20020;-49
2021/10/14 06:56:03;;;;;;;3.72;2.75;;;;;;;;;;5076324;28;20450;-52
2021/10/14 06:58:29;;;;;;;4.82;3.55;;;;;;;;;;5069880;28;20108;-52
2021/10/14 07:00:55;;;;;;;4.78;2.30;;;;;;;;;;5070978;28;20035;-49
2021/10/14 07:03:21;;;;;;;3.28;2.58;;;;;;;;;;5070813;28;20032;-49
2021/10/14 07:05:47;;;;;;;5.25;2.67;;;;;;;;;;5068882;28;20064;-52
2021/10/14 07:08:14;;;;;;;3.63;2.65;;;;;;;;;;5067157;28;20063;-51
2021/10/14 07:10:45;;;;;;;4.32;2.80;;;;;;;;;;5068300;28;20093;-52
2021/10/14 07:13:11;;;;;;;3.90;2.70;;;;;;;;;;5070447;28;20054;-51
2021/10/14 07:15:37;;;;;;;4.43;2.70;;;;;;;;;;5085934;28;20052;-50
2021/10/14 07:18:03;;;;;;;3.40;3.03;;;;;;;;;;5085891;28;20054;-51
2021/10/14 07:20:29;;;;;;;4.00;3.00;;;;;;;;;;5088315;28;20104;-52
2021/10/14 07:22:55;;;;;;;4.95;3.30;;;;;;;;;;5088440;28;20032;-49
2021/10/14 07:25:21;;;;;;;3.65;2.90;;;;;;;;;;5073304;28;20024;-50
2021/10/14 07:27:47;;;;;;;4.03;2.72;;;;;;;;;;5068446;28;20032;-49
2021/10/14 07:30:13;;;;;;;4.18;2.60;;;;;;;;;;5067986;28;20488;-51
2021/10/14 07:32:40;;;;;;;3.15;2.30;;;;;;;;;;5068364;28;20027;-48
2021/10/14 07:35:06;;;;;;;4.45;2.47;;;;;;;;;;5076299;28;20514;-49
2021/10/14 07:37:32;;;;;;;3.88;2.40;;;;;;;;;;5088319;28;20032;-48
2021/10/14 07:39:58;;;;;;;3.08;2.20;;;;;;;;;;5081089;28;20020;-48
2021/10/14 07:42:24;;;;;;;4.03;2.35;;;;;;;;;;5086531;28;20096;-49
2021/10/14 07:44:51;;;;;;;3.80;2.78;;;;;;;;;;5086971;28;20456;-49
2021/10/14 07:47:17;;;;;;;3.90;2.45;;;;;;;;;;5077372;28;20024;-49
2021/10/14 07:49:43;;;;;;;2.97;2.20;;;;;;;;;;5075626;28;20085;-47
2021/10/14 07:52:10;;;;;;;3.58;2.55;;;;;;;;;;5066854;28;20082;-48
2021/10/14 07:54:37;;;;;;;3.33;2.38;;;;;;;;;;5066484;28;20487;-48
2021/10/14 07:57:03;;;;;;;4.15;2.92;;;;;;;;;;5066002;28;20634;-48
2021/10/14 07:59:29;;;;;;;3.08;2.50;;;;;;;;;;5066449;28;20029;-49
2021/10/14 08:01:55;;;;;;;4.00;2.80;;;;;;;;;;5066646;28;20529;-50
2021/10/14 08:04:22;;;;;;;3.92;2.92;;;;;;;;;;5067999;28;20027;-47
2021/10/14 08:06:48;;;;;;;5.80;3.50;;;;;;;;;;5086262;28;20495;-48
2021/10/14 08:09:14;;;;;;;6.10;2.83;;;;;;;;;;5084621;28;20024;-50
2021/10/14 08:11:42;;;;;;;4.90;3.15;;;;;;;;;;5086274;28;20039;-49
2021/10/14 08:14:09;;;;;;;3.80;2.80;;;;;;;;;;5085120;28;20032;-48
2021/10/14 08:16:35;;;;;;;4.25;3.35;;;;;;;;;;5084804;28;20519;-48
2021/10/14 08:19:02;;;;;;;4.60;3.10;;;;;;;;;;5082527;28;20479;-48
2021/10/14 08:21:28;;;;;;;4.57;2.75;;;;;;;;;;5086171;28;20023;-48
2021/10/14 08:23:55;;;;;;;2.97;2.22;;;;;;;;;;5084691;28;20063;-48
2021/10/14 08:26:22;;;;;;;3.55;2.55;;;;;;;;;;5085795;28;20032;-47
2021/10/14 08:28:48;;;;;;;3.63;3.05;;;;;;;;;;5086267;28;20028;-48
2021/10/14 08:31:15;;;;;;;3.28;2.50;;;;;;;;;;5084450;28;20028;-48
2021/10/14 08:33:41;;;;;;;3.20;2.33;;;;;;;;;;5073725;28;20064;-48
2021/10/14 08:36:07;;;;;;;4.50;2.50;;;;;;;;;;5065905;28;20449;-47
2021/10/14 08:38:34;;;;;;;5.68;3.28;;;;;;;;;;5065616;28;20035;-48
2021/10/14 08:41:00;;;;;;;3.28;2.78;;;;;;;;;;5066176;28;20427;-48
2021/10/14 08:43:31;;;;;;;3.15;2.28;;;;;;;;;;5065455;28;20287;-51
2021/10/14 08:45:58;;;;;;;4.07;2.35;;;;;;;;;;5066048;28;20025;-48
2021/10/14 08:48:25;;;;;;;4.00;2.67;;;;;;;;;;5075628;28;20041;-47
2021/10/14 08:50:51;;;;;;;4.75;2.90;;;;;;;;;;5076142;28;20400;-48
2021/10/14 08:53:18;;;;;;;3.92;3.05;;;;;;;;;;5065307;28;20028;-49
2021/10/14 08:55:44;;;;;;;4.05;3.00;;;;;;;;;;5065644;28;20016;-48
2021/10/14 08:58:12;;;;;;;3.20;2.40;;;;;;;;;;5068798;28;20581;-48
2021/10/14 09:00:40;;;;;;;3.55;2.45;;;;;;;;;;5085748;28;20445;-48
2021/10/14 09:03:26;;;;;;;3.10;2.50;;;;;;;;;;5085573;28;20063;-49
2021/10/14 09:05:53;;;;;;;3.28;2.40;;;;;;;;;;5085479;28;20024;-48
2021/10/14 09:08:51;;;;;;;3.00;2.30;;;;;;;;;;5085501;28;20060;-49
2021/10/14 09:11:18;;;;;;;2.65;2.13;;;;;;;;;;5071791;28;20096;-48
2021/10/14 09:13:49;;;;;;;3.72;2.55;;;;;;;;;;5085331;28;20031;-55
2021/10/14 09:16:33;;;;;;;3.25;2.40;;;;;;;;;;5085343;28;20028;-48
2021/10/14 09:19:13;;;;;;;2.30;1.92;;;;;;;;;;5085520;28;20099;-49
2021/10/14 09:21:40;;;;;;;3.10;2.30;;;;;;;;;;5085221;28;20372;-48
2021/10/14 09:24:25;;;;;;;2.72;2.10;;;;;;;;;;5078112;28;20020;-48
2021/10/14 09:26:53;;;;;;;3.75;2.50;;;;;;;;;;5065224;28;20036;-48
2021/10/14 09:29:20;;;;;;;3.88;2.80;;;;;;;;;;5064836;28;20411;-48
2021/10/14 09:31:48;;;;;;;5.15;3.00;;;;;;;;;;5064820;28;20025;-49
2021/10/14 09:34:33;;;;;;;2.97;2.40;;;;;;;;;;5064770;28;20032;-49
2021/10/14 09:37:00;;;;;;;3.42;2.47;;;;;;;;;;5064341;28;20032;-50
2021/10/14 09:39:27;;;;;;;2.70;1.90;;;;;;;;;;5064647;28;20044;-49
2021/10/14 09:41:54;;;;;;;3.28;2.08;;;;;;;;;;5070399;28;20032;-49
2021/10/14 09:44:21;;;;;;;3.33;2.53;;;;;;;;;;5075810;28;20048;-48
2021/10/14 09:46:49;;;;;;;3.95;2.50;;;;;;;;;;5083113;28;20483;-48
2021/10/14 09:49:31;;;;;;;2.97;2.35;;;;;;;;;;5065792;28;20032;-48
2021/10/14 09:52:00;;;;;;;2.72;1.92;;;;;;;;;;5066743;28;20028;-47
2021/10/14 09:54:26;;;;;;;3.38;2.40;;;;;;;;;;5066715;28;20028;-48
2021/10/14 09:56:53;;;;;;;2.35;1.98;;;;;;;;;;5071342;28;20031;-48
2021/10/14 09:59:19;;;;;;;2.35;2.05;;;;;;;;;;5066125;28;20033;-48
2021/10/14 10:01:45;;;;;;;2.53;1.83;;;;;;;;;;5065632;28;20654;-49
2021/10/14 10:04:11;;;;;;;3.10;2.15;;;;;;;;;;5066043;28;20036;-49
2021/10/14 10:06:38;;;;;;;3.25;2.33;;;;;;;;;;5083902;28;20015;-48
2021/10/14 10:09:11;;;;;;;4.60;2.97;;;;;;;;;;5086250;28;20036;-51
2021/10/14 10:11:38;;;;;;;3.17;2.42;;;;;;;;;;5069057;28;20149;-51
2021/10/14 10:14:05;;;;;;;2.90;2.13;;;;;;;;;;5066169;28;20024;-51
2021/10/14 10:16:31;;;;;;;3.00;2.17;;;;;;;;;;5066099;28;20046;-48
2021/10/14 10:18:59;;;;;;;3.13;2.50;;;;;;;;;;5066801;28;20379;-51
2021/10/14 10:21:31;;;;;;;2.58;2.00;;;;;;;;;;5066794;28;20036;-52
2021/10/14 10:23:58;;;;;;;2.65;2.05;;;;;;;;;;5071567;28;20666;-48
2021/10/14 10:26:36;;;;;;;3.38;2.17;;;;;;;;;;5089723;28;20047;-49
2021/10/14 10:29:17;;;;;;;2.95;2.38;;;;;;;;;;5081943;28;20156;-48
2021/10/14 10:31:51;;;;;;;2.78;2.17;;;;;;;;;;5071025;28;20491;-49
2021/10/14 10:34:31;;;;;;;2.72;2.08;;;;;;;;;;5088174;28;20030;-49
2021/10/14 10:37:22;;;;;;;3.40;2.30;;;;;;;;;;5072606;28;20016;-47
2021/10/14 10:39:54;;;;;;;3.85;2.30;;;;;;;;;;5071004;28;20023;-48
2021/10/14 10:42:32;;;;;;;2.50;1.75;;;;;;;;;;5068822;28;20629;-47
2021/10/14 10:45:12;;;;;;;1.65;1.45;;;;;;;;;;5070179;28;20027;-48
2021/10/14 10:47:43;;;;;;;4.18;1.65;;;;;;;;;;5069351;28;20153;-48
2021/10/14 10:50:14;;;;;;;3.58;1.98;;;;;;;;;;5069075;28;20028;-48
2021/10/14 10:52:42;;;;;;;2.13;1.80;;;;;;;;;;5074731;28;20075;-50
2021/10/14 10:55:33;;;;;;;2.22;1.70;;;;;;;;;;5089343;28;20037;-49
2021/10/14 10:58:00;;;;;;;2.28;1.33;;;;;;;;;;5090057;28;20016;-51
2021/10/14 11:00:27;;;;;;;2.38;1.67;;;;;;;;;;5070338;28;20031;-50
2021/10/14 11:03:08;;;;;;;2.60;1.90;;;;;;;;;;5068743;28;20407;-48
2021/10/14 11:05:48;;;;;;;2.00;1.80;;;;;;;;;;5068877;28;20028;-48
2021/10/14 11:08:20;;;;;;;2.53;1.60;;;;;;;;;;5079984;28;20021;-49
2021/10/14 11:10:47;;;;;;;1.92;1.63;;;;;;;;;;5081075;28;20028;-50
2021/10/14 11:13:13;;;;;;;2.03;1.40;;;;;;;;;;5080435;28;20039;-51
2021/10/14 11:15:39;;;;;;;2.80;2.03;;;;;;;;;;5087024;28;20028;-56
2021/10/14 11:18:07;;;;;;;2.42;1.85;;;;;;;;;;5070224;28;20124;-52
2021/10/14 11:20:34;;;;;;;2.90;1.58;;;;;;;;;;5083400;28;20075;-51
2021/10/14 11:23:01;;;;;;;2.33;1.80;;;;;;;;;;5083377;28;20036;-51
2021/10/14 11:25:27;;;;;;;2.50;1.60;;;;;;;;;;5069209;28;20033;-48
2021/10/14 11:28:02;;;;;;;2.47;1.80;;;;;;;;;;5076748;28;20032;-48
2021/10/14 11:30:35;;;;;;;2.03;1.67;;;;;;;;;;5081165;28;20115;-50
2021/10/14 11:33:09;;;;;;;1.70;1.50;;;;;;;;;;5085439;28;20127;-48
2021/10/14 11:35:35;;;;;;;;;;;;;;;;;;5086170;28;20062;-48
2021/10/14 11:38:12;;;;;;;2.25;1.70;;;;;;;;;;5073949;28;19943;-48
2021/10/14 11:40:39;;;;;;;2.40;1.80;;;;;;;;;;5077208;28;20059;-47
2021/10/14 11:43:05;;;;;;;2.63;1.73;;;;;;;;;;5074068;28;20131;-49
2021/10/14 11:45:31;;;;;;;1.95;1.67;;;;;;;;;;5088298;28;20039;-52
2021/10/14 11:47:57;;;;;;;2.38;2.05;;;;;;;;;;5085616;28;20036;-49
2021/10/14 11:50:24;;;;;;;2.35;1.80;;;;;;;;;;5068244;28;20040;-48
2021/10/14 11:53:00;;;;;;;2.92;1.63;;;;;;;;;;5067587;28;20036;-47
2021/10/14 11:55:26;;;;;;;1.98;1.70;;;;;;;;;;5068518;28;20063;-49
2021/10/14 11:57:55;;;;;;;1.92;1.40;;;;;;;;;;5073277;28;20035;-48
2021/10/14 12:00:22;;;;;;;2.13;1.85;;;;;;;;;;5081891;28;20111;-51
2021/10/14 12:02:48;;;;;;;3.35;1.70;;;;;;;;;;5082725;28;20029;-48
2021/10/14 12:05:15;;;;;;;1.88;1.58;;;;;;;;;;5070015;28;20036;-48
2021/10/14 12:07:43;;;;;;;1.98;1.63;;;;;;;;;;5086424;28;20074;-51
2021/10/14 12:10:29;;;;;;;2.47;1.60;;;;;;;;;;5072189;28;20089;-49
2021/10/14 12:13:01;;;;;;;3.08;2.35;;;;;;;;;;5066971;28;20043;-49
2021/10/14 12:15:27;;;;;;;3.55;2.05;;;;;;;;;;5070591;28;20092;-47
2021/10/14 12:17:53;;;;;;;2.30;1.85;;;;;;;;;;5074941;28;20451;-48
2021/10/14 12:20:20;;;;;;;1.83;1.70;;;;;;;;;;5067324;28;20782;-49
2021/10/14 12:22:48;;;;;;;3.10;2.10;;;;;;;;;;5079078;28;20636;-48
2021/10/14 12:25:21;;;;;;;4.88;2.28;;;;;;;;;;5066940;28;20025;-48
2021/10/14 12:27:47;;;;;;;2.33;1.87;;;;;;;;;;5067382;28;20089;-49
2021/10/14 12:30:33;;;;;;;2.13;1.73;;;;;;;;;;5079383;28;20075;-51
2021/10/14 12:33:11;;;;;;;2.45;1.70;;;;;;;;;;5065772;28;20054;-48
2021/10/14 12:35:41;;;;;;;3.20;2.35;;;;;;;;;;5073864;28;20028;-51
2021/10/14 12:38:14;;;;;;;2.17;1.73;;;;;;;;;;5086649;28;20028;-50
2021/10/14 12:40:46;;;;;;;2.42;1.70;;;;;;;;;;5087273;28;20043;-51
2021/10/14 12:43:16;;;;;;;3.08;2.08;;;;;;;;;;5084551;28;20021;-48
2021/10/14 12:48:30;;;;;;;1.85;1.58;;;;;;;;;;5066527;28;20403;-52
2021/10/14 12:53:47;;;;;;;2.80;2.13;;;;;;;;;;5066722;28;20106;-49
2021/10/14 12:56:15;;;;;;;3.03;2.10;;;;;;;;;;5068509;28;20028;-52
2021/10/14 12:58:41;;;;;;;2.60;2.05;;;;;;;;;;5075833;28;20068;-48
2021/10/14 13:01:10;;;;;;;2.08;1.77;;;;;;;;;;5068205;28;20032;-49
2021/10/14 13:03:36;;;;;;;1.55;1.45;;;;;;;;;;5078339;28;20491;-50
2021/10/14 13:06:03;;;;;;;2.10;1.90;;;;;;;;;;5087098;28;20056;-48
2021/10/14 13:08:34;;;;;;;2.83;2.10;;;;;;;;;;5079349;28;20537;-48
2021/10/14 13:11:01;;;;;;;2.25;1.75;;;;;;;;;;5066074;28;20535;-53
2021/10/14 13:13:28;;;;;;;2.10;1.73;;;;;;;;;;5067247;28;20032;-49
2021/10/14 13:15:56;;;;;;;2.38;1.75;;;;;;;;;;5066578;28;20078;-49
2021/10/14 13:18:22;;;;;;;1.60;1.48;;;;;;;;;;5065447;28;20078;-50
2021/10/14 13:20:48;;;;;;;2.38;1.52;;;;;;;;;;5064950;28;20029;-52
2021/10/14 13:23:14;;;;;;;2.00;1.27;;;;;;;;;;5066139;28;20499;-53
2021/10/14 13:25:42;;;;;;;2.60;1.92;;;;;;;;;;5066683;28;20106;-53
2021/10/14 13:28:08;;;;;;;2.72;1.75;;;;;;;;;;5066710;28;20387;-50
2021/10/14 13:30:34;;;;;;;2.13;1.80;;;;;;;;;;5066159;28;20566;-49
2021/10/14 13:33:01;;;;;;;2.22;1.50;;;;;;;;;;5066154;28;20377;-53
2021/10/14 13:35:27;;;;;;;2.60;1.80;;;;;;;;;;5066884;28;20063;-49
2021/10/14 13:37:53;;;;;;;3.17;2.22;;;;;;;;;;5066446;28;20074;-51
2021/10/14 13:40:21;;;;;;;2.47;1.90;;;;;;;;;;5071175;28;20077;-50
2021/10/14 13:42:50;;;;;;;2.03;1.45;;;;;;;;;;5086377;28;20126;-51
2021/10/14 13:45:17;;;;;;;1.85;1.67;;;;;;;;;;5077251;28;20024;-50
2021/10/14 13:47:43;;;;;;;2.13;1.60;;;;;;;;;;5066246;28;20557;-49
2021/10/14 13:50:10;;;;;;;1.85;1.60;;;;;;;;;;5066117;28;20056;-49
2021/10/14 13:52:38;;;;;;;1.42;1.33;;;;;;;;;;5065716;28;20029;-51
2021/10/14 13:55:05;;;;;;;2.45;1.60;;;;;;;;;;5066261;28;20035;-51
2021/10/14 13:57:32;;;;;;;2.45;1.60;;;;;;;;;;5068548;28;20029;-50
2021/10/14 13:59:58;;;;;;;1.85;1.52;;;;;;;;;;5077112;28;20431;-49
2021/10/14 14:02:25;;;;;;;2.25;1.80;;;;;;;;;;5086225;28;20029;-51
2021/10/14 14:04:51;;;;;;;2.10;1.75;;;;;;;;;;5090724;28;20457;-53
2021/10/14 14:07:17;;;;;;;1.70;1.33;;;;;;;;;;5096550;28;20027;-49
2021/10/14 14:09:43;;;;;;;1.90;1.50;;;;;;;;;;5090042;28;20123;-50
2021/10/14 14:12:09;;;;;;;1.52;1.25;;;;;;;;;;5070405;28;20103;-49
2021/10/14 14:14:35;;;;;;;1.58;1.33;;;;;;;;;;5069661;28;20043;-50
2021/10/14 14:17:01;;;;;;;1.10;1.05;;;;;;;;;;5089893;28;20410;-50
2021/10/14 14:19:27;;;;;;;2.15;1.42;;;;;;;;;;5090850;28;20673;-49
2021/10/14 14:21:53;;;;;;;1.35;1.10;;;;;;;;;;5074790;28;20609;-50
2021/10/14 14:24:19;;;;;;;1.27;1.17;;;;;;;;;;5076672;28;20031;-49
2021/10/14 14:26:45;;;;;;;1.55;1.45;;;;;;;;;;5088722;28;20071;-50
2021/10/14 14:29:11;;;;;;;2.05;1.45;;;;;;;;;;5082819;28;20478;-49
2021/10/14 14:31:37;;;;;;;1.65;1.55;;;;;;;;;;5068100;28;20029;-50
2021/10/14 14:34:03;;;;;;;2.35;1.40;;;;;;;;;;5067551;28;20025;-49
2021/10/14 14:36:30;;;;;;;1.90;1.40;;;;;;;;;;5076533;28;20574;-49
2021/10/14 14:38:56;;;;;;;1.70;1.35;;;;;;;;;;5068751;28;20028;-50
2021/10/14 14:41:23;;;;;;;1.85;1.35;;;;;;;;;;5069859;28;20025;-52
2021/10/14 14:43:49;;;;;;;2.10;1.42;;;;;;;;;;5068728;28;20037;-53
2021/10/14 14:46:18;;;;;;;2.75;1.70;;;;;;;;;;5071528;28;20024;-52
2021/10/14 14:48:44;;;;;;;2.38;1.58;;;;;;;;;;5078326;28;20388;-53
2021/10/14 14:51:11;;;;;;;2.38;1.70;;;;;;;;;;5084585;28;20779;-52